createdAt,value
2023-05-23T00:01:43.356Z,99.90
2023-05-23T00:04:10.873Z,99.90
2023-05-23T00:06:38.953Z,99.90
2023-05-23T00:09:06.145Z,99.90
2023-05-23T00:11:33.142Z,99.90
2023-05-23T00:14:01.301Z,99.90
2023-05-23T00:16:28.727Z,99.90
2023-05-23T00:18:57.706Z,99.90
2023-05-23T00:21:24.768Z,99.90
2023-05-23T00:23:51.723Z,99.90
2023-05-23T00:26:18.638Z,99.90
2023-05-23T00:28:46.711Z,99.90
2023-05-23T00:31:13.645Z,99.90
2023-05-23T00:33:40.607Z,99.90
2023-05-23T00:36:07.568Z,99.90
2023-05-23T00:38:34.437Z,99.90
2023-05-23T00:41:02.474Z,99.90
2023-05-23T00:43:29.578Z,99.90
2023-05-23T00:45:56.816Z,99.90
2023-05-23T00:48:25.475Z,99.90
2023-05-23T00:50:53.097Z,99.90
2023-05-23T00:53:20.737Z,99.90
2023-05-23T00:55:47.973Z,99.90
2023-05-23T00:58:15.971Z,99.90
2023-05-23T01:00:45.003Z,99.90
2023-05-23T01:03:18.202Z,99.90
2023-05-23T01:08:13.006Z,99.90
2023-05-23T01:10:40.030Z,99.90
2023-05-23T01:13:34.402Z,99.90
2023-05-23T01:16:13.382Z,99.90
2023-05-23T01:18:48.081Z,99.90
2023-05-23T01:21:19.040Z,99.90
2023-05-23T01:24:29.283Z,99.90
2023-05-23T01:27:08.684Z,99.90
2023-05-23T01:29:41.426Z,99.90
2023-05-23T01:32:12.280Z,99.90
2023-05-23T01:34:41.350Z,99.90
2023-05-23T01:37:10.505Z,99.90
2023-05-23T01:39:38.758Z,99.90
2023-05-23T01:42:06.311Z,99.90
2023-05-23T01:44:35.429Z,99.90
2023-05-23T01:47:08.369Z,99.90
2023-05-23T01:49:36.905Z,99.90
2023-05-23T01:52:04.952Z,99.90
2023-05-23T01:54:35.535Z,99.90
2023-05-23T01:57:03.101Z,99.90
2023-05-23T01:59:30.181Z,99.90
2023-05-23T02:01:58.066Z,99.90
2023-05-23T02:04:25.036Z,99.90
2023-05-23T02:06:51.954Z,99.90
2023-05-23T02:09:18.894Z,99.90
2023-05-23T02:11:45.839Z,99.90
2023-05-23T02:14:13.075Z,99.90
2023-05-23T02:16:40.190Z,99.90
2023-05-23T02:19:07.205Z,99.90
2023-05-23T02:21:35.434Z,99.90
2023-05-23T02:24:03.762Z,99.90
2023-05-23T02:26:30.819Z,99.90
2023-05-23T02:28:57.850Z,99.90
2023-05-23T02:31:25.124Z,99.90
2023-05-23T02:33:53.759Z,99.90
2023-05-23T02:36:20.990Z,99.90
2023-05-23T02:38:47.979Z,99.90
2023-05-23T02:41:15.536Z,99.90
2023-05-23T02:43:42.677Z,99.90
2023-05-23T02:46:10.335Z,99.90
2023-05-23T02:48:37.303Z,99.90
2023-05-23T02:51:04.471Z,99.90
2023-05-23T02:53:31.877Z,99.90
2023-05-23T02:55:58.844Z,99.90
2023-05-23T02:58:25.737Z,99.90
2023-05-23T03:00:52.628Z,99.90
2023-05-23T03:03:19.717Z,99.90
2023-05-23T03:08:14.148Z,99.90
2023-05-23T03:10:41.034Z,99.90
2023-05-23T03:13:08.394Z,99.90
2023-05-23T03:15:38.205Z,99.90
2023-05-23T03:18:05.203Z,99.90
2023-05-23T03:20:32.235Z,99.90
2023-05-23T03:22:59.133Z,99.90
2023-05-23T03:25:26.161Z,99.90
2023-05-23T03:27:54.660Z,99.90
2023-05-23T03:30:22.141Z,99.90
2023-05-23T03:32:49.971Z,99.90
2023-05-23T03:35:17.101Z,99.90
2023-05-23T03:37:44.011Z,99.90
2023-05-23T03:40:11.056Z,99.90
2023-05-23T03:42:39.600Z,99.90
2023-05-23T03:45:07.251Z,99.90
2023-05-23T03:47:34.597Z,99.90
2023-05-23T03:50:01.617Z,99.90
2023-05-23T03:52:28.552Z,99.90
2023-05-23T03:57:23.209Z,99.90
2023-05-23T03:59:51.244Z,99.90
2023-05-23T04:02:18.796Z,99.90
2023-05-23T04:04:47.067Z,99.90
2023-05-23T04:07:15.758Z,99.90
2023-05-23T04:09:43.818Z,99.90
2023-05-23T04:12:12.723Z,99.90
2023-05-23T04:14:39.739Z,99.90
2023-05-23T04:17:09.370Z,99.90
2023-05-23T04:19:37.429Z,99.90
2023-05-23T04:22:04.503Z,99.90
2023-05-23T04:24:31.423Z,99.90
2023-05-23T04:26:59.441Z,99.90
2023-05-23T04:29:26.600Z,99.90
2023-05-23T04:31:55.112Z,99.90
2023-05-23T04:34:22.618Z,99.90
2023-05-23T04:36:49.909Z,99.90
2023-05-23T04:39:17.181Z,99.90
2023-05-23T04:42:01.328Z,99.90
2023-05-23T04:47:46.674Z,99.90
2023-05-23T04:50:24.856Z,99.90
2023-05-23T04:52:51.995Z,99.90
2023-05-23T04:55:20.143Z,99.90
2023-05-23T04:57:47.404Z,99.90
2023-05-23T05:00:15.561Z,99.90
2023-05-23T05:02:42.961Z,99.90
2023-05-23T05:05:10.637Z,99.90
2023-05-23T05:07:38.143Z,99.90
2023-05-23T05:10:06.756Z,99.90
2023-05-23T05:12:35.136Z,99.90
2023-05-23T05:15:03.883Z,99.90
2023-05-23T05:17:36.896Z,99.90
2023-05-23T05:20:08.754Z,99.90
2023-05-23T05:22:40.211Z,99.90
2023-05-23T05:25:08.745Z,99.90
2023-05-23T05:27:39.549Z,99.90
2023-05-23T05:30:10.185Z,99.90
2023-05-23T05:32:48.497Z,99.90
2023-05-23T05:35:15.922Z,99.90
2023-05-23T05:37:44.912Z,99.90
2023-05-23T05:40:13.214Z,99.90
2023-05-23T05:42:42.731Z,99.90
2023-05-23T05:45:11.564Z,99.90
2023-05-23T05:47:40.735Z,99.90
2023-05-23T05:50:09.515Z,99.90
2023-05-23T05:52:39.736Z,99.90
2023-05-23T05:55:07.869Z,99.90
2023-05-23T05:57:38.679Z,99.90
2023-05-23T06:00:19.038Z,99.90
2023-05-23T06:02:55.109Z,99.90
2023-05-23T06:05:39.739Z,99.90
2023-05-23T06:08:06.872Z,99.90
2023-05-23T06:10:34.025Z,99.90
2023-05-23T06:13:02.086Z,99.90
2023-05-23T06:15:30.542Z,99.90
2023-05-23T06:17:57.673Z,99.90
2023-05-23T06:20:25.264Z,99.90
2023-05-23T06:22:54.211Z,99.90
2023-05-23T06:25:21.205Z,99.90
2023-05-23T06:27:48.279Z,99.90
2023-05-23T06:30:15.699Z,99.90
2023-05-23T06:32:42.719Z,99.90
2023-05-23T06:35:10.283Z,99.90
2023-05-23T06:37:37.325Z,99.90
2023-05-23T06:40:05.526Z,99.90
2023-05-23T06:42:32.521Z,99.90
2023-05-23T06:45:18.040Z,99.90
2023-05-23T06:50:12.896Z,99.90
2023-05-23T06:52:40.121Z,99.90
2023-05-23T06:55:07.443Z,99.90
2023-05-23T06:57:35.002Z,99.90
2023-05-23T07:00:02.202Z,99.90
2023-05-23T07:02:30.426Z,99.90
2023-05-23T07:04:57.390Z,99.90
2023-05-23T07:07:46.484Z,99.90
2023-05-23T07:12:41.083Z,99.90
2023-05-23T07:15:09.324Z,99.90
2023-05-23T07:17:42.704Z,99.90
2023-05-23T07:20:10.293Z,99.90
2023-05-23T07:22:38.863Z,99.90
2023-05-23T07:25:06.532Z,99.90
2023-05-23T07:27:35.446Z,99.90
2023-05-23T07:30:04.621Z,99.90
2023-05-23T07:32:31.613Z,99.90
2023-05-23T07:34:59.120Z,99.90
2023-05-23T07:37:27.630Z,99.90
2023-05-23T07:39:54.715Z,99.90
2023-05-23T07:42:21.794Z,99.90
2023-05-23T07:44:49.022Z,99.90
2023-05-23T07:47:16.040Z,99.90
2023-05-23T07:52:11.637Z,99.90
2023-05-23T07:54:39.113Z,99.90
2023-05-23T07:57:07.380Z,99.90
2023-05-23T07:59:34.594Z,99.90
2023-05-23T08:02:02.453Z,99.90
2023-05-23T08:04:29.789Z,99.90
2023-05-23T08:09:31.702Z,99.90
2023-05-23T08:11:59.403Z,99.90
2023-05-23T08:14:38.603Z,99.90
2023-05-23T08:19:49.283Z,99.90
2023-05-23T08:22:16.457Z,99.90
2023-05-23T08:24:43.562Z,99.90
2023-05-23T08:27:10.912Z,99.90
2023-05-23T08:29:38.589Z,99.90
2023-05-23T08:32:06.497Z,99.90
2023-05-23T08:34:35.002Z,99.90
2023-05-23T08:39:29.689Z,99.90
2023-05-23T08:42:14.098Z,99.90
2023-05-23T08:44:41.185Z,99.90
2023-05-23T08:47:09.018Z,99.90
2023-05-23T08:49:55.180Z,99.90
2023-05-23T08:52:27.678Z,99.90
2023-05-23T08:54:56.704Z,99.90
2023-05-23T08:57:23.959Z,99.90
2023-05-23T08:59:57.598Z,99.90
2023-05-23T09:02:25.195Z,99.90
2023-05-23T09:04:57.625Z,99.90
2023-05-23T09:07:26.010Z,99.90
2023-05-23T09:09:53.672Z,99.90
2023-05-23T09:12:23.763Z,99.90
2023-05-23T09:14:51.124Z,99.90
2023-05-23T09:17:19.588Z,99.90
2023-05-23T09:19:47.566Z,99.90
2023-05-23T09:22:36.429Z,99.90
2023-05-23T09:25:09.514Z,99.90
2023-05-23T09:27:38.918Z,99.90
2023-05-23T09:30:08.235Z,99.90
2023-05-23T09:32:35.349Z,99.90
2023-05-23T09:35:06.303Z,99.90
2023-05-23T09:37:35.487Z,99.90
2023-05-23T09:40:14.246Z,99.90
2023-05-23T09:42:47.979Z,99.90
2023-05-23T09:45:16.352Z,99.90
2023-05-23T09:47:54.037Z,99.90
2023-05-23T09:50:22.462Z,99.90
2023-05-23T09:52:49.810Z,99.90
2023-05-23T09:55:17.099Z,99.90
2023-05-23T09:57:45.405Z,99.90
2023-05-23T10:00:13.808Z,99.90
2023-05-23T10:03:01.915Z,99.90
2023-05-23T10:05:57.783Z,99.90
2023-05-23T10:08:34.158Z,99.90
2023-05-23T10:11:13.247Z,99.90
2023-05-23T10:13:49.697Z,99.90
2023-05-23T10:16:28.894Z,99.90
2023-05-23T10:19:01.029Z,99.90
2023-05-23T10:21:33.466Z,99.90
2023-05-23T10:24:01.178Z,99.90
2023-05-23T10:26:28.563Z,99.90
2023-05-23T10:28:57.434Z,99.90
2023-05-23T10:31:25.105Z,99.90
2023-05-23T10:34:12.615Z,99.90
2023-05-23T10:37:04.192Z,99.90
2023-05-23T10:39:37.160Z,99.90
2023-05-23T10:42:11.652Z,99.90
2023-05-23T10:47:06.141Z,99.90
2023-05-23T10:49:47.101Z,99.90
2023-05-23T10:52:16.743Z,99.90
2023-05-23T10:54:58.418Z,99.90
2023-05-23T10:57:28.218Z,99.90
2023-05-23T10:59:55.245Z,99.90
2023-05-23T11:02:29.443Z,99.90
2023-05-23T11:05:19.670Z,99.90
2023-05-23T11:07:46.686Z,99.90
2023-05-23T11:10:14.489Z,99.90
2023-05-23T11:12:43.021Z,99.90
2023-05-23T11:15:19.428Z,99.90
2023-05-23T11:17:57.429Z,99.90
2023-05-23T11:20:27.638Z,99.90
2023-05-23T11:22:56.103Z,99.90
2023-05-23T11:25:44.006Z,99.90
2023-05-23T11:28:13.092Z,99.90
2023-05-23T11:30:41.308Z,99.90
2023-05-23T11:33:16.452Z,99.90
2023-05-23T11:35:45.406Z,99.90
2023-05-23T11:38:13.846Z,99.90
2023-05-23T11:40:43.343Z,99.90
2023-05-23T11:43:13.957Z,99.90
2023-05-23T11:45:41.255Z,99.90
2023-05-23T11:48:13.186Z,99.90
2023-05-23T11:50:51.904Z,99.90
2023-05-23T11:53:21.731Z,99.90
2023-05-23T11:55:50.989Z,99.90
2023-05-23T11:58:18.502Z,99.90
2023-05-23T12:00:46.271Z,99.90
2023-05-23T12:03:13.706Z,99.90
2023-05-23T12:05:44.036Z,99.90
2023-05-23T12:08:14.572Z,99.90
2023-05-23T12:11:00.753Z,99.90
2023-05-23T12:13:30.806Z,99.90
2023-05-23T12:16:01.328Z,99.90
2023-05-23T12:18:29.895Z,99.90
2023-05-23T12:21:05.881Z,99.90
2023-05-23T12:23:34.984Z,99.90
2023-05-23T12:26:10.249Z,99.90
2023-05-23T12:28:43.250Z,99.90
2023-05-23T12:31:12.442Z,99.90
2023-05-23T12:33:44.584Z,99.90
2023-05-23T12:36:12.282Z,99.90
2023-05-23T12:38:40.946Z,99.90
2023-05-23T12:41:11.942Z,99.90
2023-05-23T12:43:40.718Z,99.90
2023-05-23T12:46:10.365Z,99.90
2023-05-23T12:48:37.300Z,99.90
2023-05-23T12:51:04.424Z,99.90
2023-05-23T12:53:32.438Z,99.90
2023-05-23T12:55:59.457Z,99.90
2023-05-23T12:58:27.243Z,99.90
2023-05-23T13:00:54.992Z,99.90
2023-05-23T13:03:22.035Z,99.90
2023-05-23T13:05:48.949Z,99.90
2023-05-23T13:08:16.680Z,99.90
2023-05-23T13:10:43.543Z,99.90
2023-05-23T13:13:11.046Z,99.90
2023-05-23T13:15:38.127Z,99.90
2023-05-23T13:18:05.456Z,99.90
2023-05-23T13:20:32.441Z,99.90
2023-05-23T13:22:59.505Z,99.90
2023-05-23T13:25:26.972Z,99.90
2023-05-23T13:27:54.170Z,99.90
2023-05-23T13:30:22.372Z,99.90
2023-05-23T13:32:51.535Z,99.90
2023-05-23T13:35:18.772Z,99.90
2023-05-23T13:37:46.281Z,99.90
2023-05-23T13:40:20.907Z,99.90
2023-05-23T13:42:50.989Z,99.90
2023-05-23T13:45:18.947Z,99.90
2023-05-23T13:47:47.046Z,99.90
2023-05-23T13:50:14.090Z,99.90
2023-05-23T13:52:44.173Z,99.90
2023-05-23T13:55:11.888Z,99.90
2023-05-23T13:57:38.790Z,99.90
2023-05-23T14:00:06.480Z,99.90
2023-05-23T14:02:34.922Z,99.90
2023-05-23T14:05:01.966Z,99.90
2023-05-23T14:07:29.280Z,99.90
2023-05-23T14:09:57.554Z,99.90
2023-05-23T14:12:24.527Z,99.90
2023-05-23T14:14:51.845Z,99.90
2023-05-23T14:17:19.066Z,99.90
2023-05-23T14:19:46.318Z,99.90
2023-05-23T14:22:13.317Z,99.90
2023-05-23T14:24:40.578Z,99.90
2023-05-23T14:27:10.215Z,99.90
2023-05-23T14:29:38.176Z,99.90
2023-05-23T14:32:05.373Z,99.90
2023-05-23T14:34:32.316Z,99.90
2023-05-23T14:36:59.224Z,99.90
2023-05-23T14:39:26.202Z,99.90
2023-05-23T14:41:53.162Z,99.90
2023-05-23T14:49:17.917Z,99.90
2023-05-23T14:51:51.425Z,99.90
2023-05-23T14:56:46.611Z,99.90
2023-05-23T14:59:13.663Z,99.90
2023-05-23T15:01:41.096Z,99.90
2023-05-23T15:04:11.806Z,99.90
2023-05-23T15:06:39.718Z,99.90
2023-05-23T15:09:07.683Z,99.90
2023-05-23T15:14:03.868Z,99.90
2023-05-23T15:16:35.081Z,99.90
2023-05-23T15:19:02.131Z,99.90
2023-05-23T15:23:58.960Z,99.90
2023-05-23T15:26:27.376Z,99.90
2023-05-23T15:28:54.353Z,99.90
2023-05-23T15:31:21.795Z,99.90
2023-05-23T15:36:16.234Z,99.90
2023-05-23T15:38:43.869Z,99.90
2023-05-23T15:41:11.461Z,99.90
2023-05-23T15:43:38.461Z,99.90
2023-05-23T15:46:05.675Z,99.90
2023-05-23T15:48:32.986Z,99.90
2023-05-23T15:53:27.624Z,99.90
2023-05-23T15:55:55.074Z,99.90
2023-05-23T16:00:49.480Z,99.90
2023-05-23T16:03:16.433Z,99.90
2023-05-23T16:05:43.554Z,99.90
2023-05-23T16:10:38.160Z,99.90
2023-05-23T16:13:05.519Z,99.90
2023-05-23T16:15:32.924Z,99.90
2023-05-23T16:18:00.726Z,99.30
2023-05-23T16:22:55.461Z,98.60
2023-05-23T16:25:22.529Z,98.10
2023-05-23T16:27:49.498Z,97.70
2023-05-23T16:30:16.462Z,97.10
2023-05-23T16:32:43.667Z,97.10
2023-05-23T16:35:14.114Z,97.40
2023-05-23T16:37:41.201Z,97.50
2023-05-23T16:40:09.866Z,97.20
2023-05-23T16:42:37.315Z,96.80
2023-05-23T16:45:05.049Z,96.80
2023-05-23T16:47:31.999Z,96.60
2023-05-23T16:49:59.001Z,96.70
2023-05-23T16:52:26.022Z,96.60
2023-05-23T16:54:53.160Z,96.90
2023-05-23T16:57:20.287Z,95.60
2023-05-23T16:59:47.172Z,95.60
2023-05-23T17:02:16.359Z,95.40
2023-05-23T17:04:43.696Z,94.90
2023-05-23T17:07:10.632Z,94.90
2023-05-23T17:09:37.694Z,95.40
2023-05-23T17:12:05.159Z,95.00
2023-05-23T17:14:32.290Z,94.90
2023-05-23T17:16:59.267Z,94.30
2023-05-23T17:19:26.458Z,94.40
2023-05-23T17:21:53.646Z,94.80
2023-05-23T17:24:21.163Z,94.60
2023-05-23T17:26:48.220Z,94.70
2023-05-23T17:31:44.567Z,93.10
2023-05-23T17:41:34.346Z,93.60
2023-05-23T17:44:02.359Z,94.10
2023-05-23T17:46:29.398Z,94.40
2023-05-23T17:48:56.336Z,94.60
2023-05-23T17:51:23.458Z,94.50
2023-05-23T17:53:53.573Z,94.80
2023-05-23T17:56:23.211Z,95.10
2023-05-23T18:03:45.230Z,95.00
2023-05-23T18:06:12.196Z,94.90
2023-05-23T18:08:39.104Z,94.90
2023-05-23T18:11:06.301Z,94.60
2023-05-23T18:16:01.071Z,94.80
2023-05-23T18:18:28.429Z,95.10
2023-05-23T18:23:23.793Z,95.30
2023-05-23T18:25:50.681Z,95.80
2023-05-23T18:28:17.652Z,95.70
2023-05-23T18:30:44.831Z,95.90
2023-05-23T18:33:11.990Z,95.70
2023-05-23T18:35:39.016Z,95.50
2023-05-23T18:40:33.614Z,95.10
2023-05-23T18:43:00.586Z,95.40
2023-05-23T18:45:27.986Z,95.30
2023-05-23T18:47:54.889Z,95.50
2023-05-23T18:55:16.948Z,95.30
2023-05-23T18:57:43.839Z,95.70
2023-05-23T19:00:11.234Z,95.90
2023-05-23T19:02:43.831Z,96.10
2023-05-23T19:05:12.410Z,96.10
2023-05-23T19:07:39.627Z,95.80
2023-05-23T19:10:07.086Z,95.90
2023-05-23T19:12:34.721Z,96.40
2023-05-23T19:15:01.944Z,96.30
2023-05-23T19:17:28.926Z,96.50
2023-05-23T19:19:55.960Z,96.80
2023-05-23T19:24:50.925Z,96.20
2023-05-23T19:29:45.486Z,96.50
2023-05-23T19:32:12.573Z,96.80
2023-05-23T19:34:39.652Z,96.60
2023-05-23T19:37:06.585Z,97.00
2023-05-23T19:39:33.457Z,96.70
2023-05-23T19:42:00.353Z,97.00
2023-05-23T19:46:54.799Z,96.40
2023-05-23T19:49:21.856Z,96.80
2023-05-23T19:51:48.845Z,97.00
2023-05-23T20:01:38.381Z,96.10
2023-05-23T20:04:06.375Z,96.50
2023-05-23T20:06:36.939Z,96.50
2023-05-23T20:09:04.034Z,96.30
2023-05-23T20:21:21.648Z,96.50
2023-05-23T20:23:49.251Z,96.90
2023-05-23T20:26:16.400Z,96.90
2023-05-23T20:28:43.351Z,96.90
2023-05-23T20:33:37.586Z,97.10
2023-05-23T20:36:04.793Z,97.10
2023-05-23T20:38:34.032Z,97.20
2023-05-23T20:41:06.606Z,97.60
2023-05-23T20:43:37.141Z,97.70
2023-05-23T20:46:09.928Z,97.30
2023-05-23T20:48:36.769Z,97.60
2023-05-23T20:53:33.158Z,97.30
2023-05-23T20:56:01.199Z,97.90
2023-05-23T21:05:50.462Z,98.30
2023-05-23T21:13:16.974Z,98.20
2023-05-23T21:15:44.089Z,98.00
2023-05-23T21:18:11.235Z,98.20
2023-05-23T21:20:38.325Z,98.30
2023-05-23T21:23:05.264Z,98.40
2023-05-23T21:25:32.302Z,98.70
2023-05-23T21:30:26.635Z,98.70
2023-05-23T21:32:53.664Z,99.00
2023-05-23T21:35:20.709Z,99.00
2023-05-23T21:37:47.589Z,98.90
2023-05-23T21:42:41.830Z,98.70
2023-05-23T21:45:09.463Z,99.30
2023-05-23T21:50:04.624Z,99.20
2023-05-23T21:52:31.650Z,99.90
2023-05-23T21:54:58.566Z,99.60
2023-05-23T21:59:53.033Z,99.50
2023-05-23T22:02:19.973Z,99.90
2023-05-23T22:07:14.252Z,99.70
2023-05-23T22:09:41.388Z,99.90
2023-05-23T22:12:08.633Z,99.90
2023-05-23T22:21:58.620Z,99.90
2023-05-23T22:24:26.299Z,99.90
2023-05-23T22:26:53.219Z,99.90
2023-05-23T22:29:20.163Z,99.90
2023-05-23T22:31:47.605Z,99.90
2023-05-23T22:34:15.057Z,99.90
2023-05-23T22:39:09.659Z,99.70
2023-05-23T22:41:36.649Z,99.90
2023-05-23T22:44:03.713Z,99.90
2023-05-23T22:46:31.027Z,99.90
2023-05-23T22:51:25.394Z,99.90
2023-05-23T22:53:52.938Z,99.90
2023-05-23T23:01:14.754Z,99.90
2023-05-23T23:06:09.448Z,99.70
2023-05-23T23:08:37.701Z,99.90
2023-05-23T23:13:32.231Z,99.50
2023-05-23T23:18:26.978Z,99.30
2023-05-23T23:23:21.479Z,99.30
2023-05-23T23:25:50.202Z,99.80
2023-05-23T23:28:17.844Z,99.60
2023-05-23T23:30:45.081Z,99.90
2023-05-23T23:35:39.843Z,99.80
2023-05-23T23:38:06.991Z,99.90
2023-05-23T23:40:33.882Z,99.90
2023-05-23T23:45:28.124Z,99.90
2023-05-23T23:47:55.045Z,99.90
2023-05-23T23:52:49.968Z,99.90
2023-05-23T23:57:44.590Z,99.90
